createdAt,value
2018-06-11T00:02:25.730Z,61.46
2018-06-11T00:04:55.661Z,61.52
2018-06-11T00:07:25.463Z,61.61
2018-06-11T00:09:55.507Z,60.77
2018-06-11T00:12:26.067Z,60.90
2018-06-11T00:14:55.751Z,60.79
2018-06-11T00:17:25.646Z,60.90
2018-06-11T00:19:55.552Z,60.62
2018-06-11T00:22:26.692Z,60.53
2018-06-11T00:24:56.804Z,60.37
2018-06-11T00:27:27.739Z,60.66
2018-06-11T00:29:58.011Z,61.12
2018-06-11T00:32:27.635Z,60.70
2018-06-11T00:34:57.150Z,60.89
2018-06-11T00:37:26.994Z,60.88
2018-06-11T00:39:57.095Z,60.41
2018-06-11T00:42:26.974Z,60.49
2018-06-11T00:44:56.958Z,60.78
2018-06-11T00:47:26.415Z,60.77
2018-06-11T00:49:55.805Z,61.09
2018-06-11T00:52:26.066Z,60.87
2018-06-11T00:54:55.761Z,60.81
2018-06-11T00:57:25.826Z,61.35
2018-06-11T00:59:55.359Z,60.71
2018-06-11T01:02:24.967Z,60.55
2018-06-11T01:04:54.775Z,60.34
2018-06-11T01:07:25.044Z,60.10
2018-06-11T01:09:55.159Z,60.43
2018-06-11T01:12:27.847Z,60.47
2018-06-11T01:14:57.770Z,60.40
2018-06-11T01:17:27.672Z,59.76
2018-06-11T01:19:57.290Z,59.99
2018-06-11T01:22:27.303Z,59.37
2018-06-11T01:24:56.783Z,59.71
2018-06-11T01:27:27.426Z,59.82
2018-06-11T01:29:57.874Z,59.17
2018-06-11T01:32:27.653Z,59.23
2018-06-11T01:34:57.537Z,59.44
2018-06-11T01:37:27.707Z,59.52
2018-06-11T01:39:58.215Z,59.67
2018-06-11T01:42:27.973Z,59.55
2018-06-11T01:44:58.204Z,59.19
2018-06-11T01:47:28.552Z,59.67
2018-06-11T01:49:58.063Z,59.26
2018-06-11T01:52:27.866Z,59.53
2018-06-11T01:54:57.703Z,59.55
2018-06-11T01:57:27.438Z,60.11
2018-06-11T01:59:57.842Z,60.36
2018-06-11T02:02:27.771Z,59.93
2018-06-11T02:04:57.790Z,60.08
2018-06-11T02:07:27.380Z,59.72
2018-06-11T02:09:57.991Z,59.61
2018-06-11T02:12:27.481Z,60.07
2018-06-11T02:14:57.018Z,59.98
2018-06-11T02:17:26.749Z,59.79
2018-06-11T02:19:56.578Z,59.71
2018-06-11T02:22:26.698Z,60.15
2018-06-11T02:24:57.011Z,59.64
2018-06-11T02:27:26.576Z,59.39
2018-06-11T02:29:56.389Z,59.99
2018-06-11T02:32:26.435Z,60.04
2018-06-11T02:34:56.673Z,59.49
2018-06-11T02:37:26.626Z,59.91
2018-06-11T02:39:56.021Z,59.42
2018-06-11T02:42:26.599Z,59.59
2018-06-11T02:44:56.052Z,59.42
2018-06-11T02:47:25.782Z,59.65
2018-06-11T02:49:55.581Z,59.69
2018-06-11T02:52:25.317Z,59.71
2018-06-11T02:54:55.478Z,59.72
2018-06-11T02:57:25.580Z,59.67
2018-06-11T02:59:55.325Z,60.08
2018-06-11T03:02:26.248Z,59.79
2018-06-11T03:04:56.034Z,60.06
2018-06-11T03:07:25.685Z,59.64
2018-06-11T03:09:55.459Z,60.20
2018-06-11T03:12:25.270Z,59.91
2018-06-11T03:14:54.933Z,60.55
2018-06-11T03:17:24.787Z,61.21
2018-06-11T03:19:54.396Z,62.19
2018-06-11T03:22:24.109Z,62.75
2018-06-11T03:24:54.224Z,63.25
2018-06-11T03:27:24.142Z,63.26
2018-06-11T03:29:53.677Z,62.92
2018-06-11T03:32:23.127Z,63.08
2018-06-11T03:34:52.791Z,63.50
2018-06-11T03:37:22.738Z,62.51
2018-06-11T03:39:52.309Z,62.34
2018-06-11T03:42:22.479Z,62.32
2018-06-11T03:44:52.076Z,62.64
2018-06-11T03:47:21.933Z,61.47
2018-06-11T03:49:51.529Z,60.62
2018-06-11T03:52:21.384Z,60.08
2018-06-11T03:54:51.076Z,59.36
2018-06-11T03:57:21.157Z,58.56
2018-06-11T03:59:51.385Z,58.76
2018-06-11T04:02:20.900Z,58.00
2018-06-11T04:04:50.617Z,57.72
2018-06-11T04:07:20.524Z,57.78
2018-06-11T04:09:50.719Z,57.69
2018-06-11T04:12:20.570Z,57.37
2018-06-11T04:14:50.758Z,57.07
2018-06-11T04:17:20.443Z,57.37
2018-06-11T04:19:50.418Z,56.82
2018-06-11T04:22:20.450Z,56.75
2018-06-11T04:24:50.254Z,56.56
2018-06-11T04:27:20.384Z,56.86
2018-06-11T04:29:50.973Z,57.36
2018-06-11T04:32:21.013Z,56.91
2018-06-11T04:34:51.118Z,57.11
2018-06-11T04:37:20.683Z,57.74
2018-06-11T04:39:50.593Z,57.42
2018-06-11T04:42:20.069Z,58.15
2018-06-11T04:44:52.693Z,58.20
2018-06-11T04:47:23.608Z,58.20
2018-06-11T04:49:54.205Z,58.50
2018-06-11T04:52:25.866Z,58.58
2018-06-11T04:54:55.729Z,58.58
2018-06-11T04:57:25.619Z,58.46
2018-06-11T04:59:55.767Z,58.80
2018-06-11T05:02:25.695Z,60.07
2018-06-11T05:04:55.540Z,59.67
2018-06-11T05:07:27.612Z,60.34
2018-06-11T05:09:58.215Z,60.65
2018-06-11T05:12:27.666Z,60.52
2018-06-11T05:14:57.938Z,60.89
2018-06-11T05:17:28.211Z,60.60
2018-06-11T05:19:58.362Z,61.39
2018-06-11T05:22:29.640Z,61.51
2018-06-11T05:24:59.496Z,60.89
2018-06-11T05:27:29.795Z,60.87
2018-06-11T05:30:00.717Z,61.22
2018-06-11T05:32:30.430Z,61.26
2018-06-11T05:35:00.282Z,61.58
2018-06-11T05:37:30.321Z,62.16
2018-06-11T05:40:00.644Z,62.21
2018-06-11T05:42:30.280Z,62.02
2018-06-11T05:45:00.167Z,61.92
2018-06-11T05:47:29.766Z,62.26
2018-06-11T05:49:59.558Z,62.27
2018-06-11T05:52:29.322Z,61.55
2018-06-11T05:54:59.096Z,60.70
2018-06-11T05:57:29.935Z,60.34
2018-06-11T05:59:59.794Z,59.90
2018-06-11T06:02:29.953Z,59.29
2018-06-11T06:04:59.929Z,59.40
2018-06-11T06:07:30.448Z,59.09
2018-06-11T06:10:00.460Z,58.81
2018-06-11T06:12:30.277Z,59.20
2018-06-11T06:14:59.933Z,58.84
2018-06-11T06:17:30.005Z,58.53
2018-06-11T06:19:59.674Z,58.30
2018-06-11T06:22:30.472Z,58.33
2018-06-11T06:25:00.460Z,58.13
2018-06-11T06:27:30.653Z,57.71
2018-06-11T06:30:00.953Z,57.89
2018-06-11T06:32:31.790Z,57.68
2018-06-11T06:35:01.591Z,58.03
2018-06-11T06:37:31.800Z,57.62
2018-06-11T06:40:02.102Z,57.02
2018-06-11T06:42:32.206Z,56.85
2018-06-11T06:45:02.178Z,56.47
2018-06-11T06:47:32.070Z,56.40
2018-06-11T06:50:02.200Z,56.18
2018-06-11T06:52:32.015Z,56.75
2018-06-11T06:55:02.553Z,56.69
2018-06-11T06:57:32.958Z,57.54
2018-06-11T07:00:02.873Z,57.15
2018-06-11T07:02:33.012Z,57.32
2018-06-11T07:05:04.530Z,57.60
2018-06-11T07:07:34.236Z,57.21
2018-06-11T07:10:04.400Z,58.06
2018-06-11T07:12:34.416Z,58.21
2018-06-11T07:15:04.544Z,58.09
2018-06-11T07:17:34.314Z,59.21
2018-06-11T07:20:04.410Z,58.75
2018-06-11T07:22:34.254Z,58.95
2018-06-11T07:25:06.230Z,59.20
2018-06-11T07:27:36.483Z,58.93
2018-06-11T07:30:06.797Z,58.22
2018-06-11T07:32:36.827Z,57.57
2018-06-11T07:35:06.745Z,57.22
2018-06-11T07:37:36.813Z,57.70
2018-06-11T07:40:06.929Z,56.72
2018-06-11T07:42:36.404Z,56.13
2018-06-11T07:45:07.765Z,56.09
2018-06-11T07:47:37.849Z,55.77
2018-06-11T07:50:07.840Z,55.96
2018-06-11T07:52:38.018Z,55.53
2018-06-11T07:55:07.823Z,55.25
2018-06-11T07:57:37.432Z,55.78
2018-06-11T08:00:07.388Z,56.54
2018-06-11T08:02:37.238Z,56.21
2018-06-11T08:05:07.309Z,56.66
2018-06-11T08:07:36.779Z,55.90
2018-06-11T08:10:06.703Z,55.94
2018-06-11T08:12:36.303Z,55.90
2018-06-11T08:15:05.859Z,55.88
2018-06-11T08:17:35.648Z,55.58
2018-06-11T08:20:05.883Z,55.94
2018-06-11T08:22:36.172Z,56.11
2018-06-11T08:25:08.353Z,56.44
2018-06-11T08:27:38.728Z,56.99
2018-06-11T08:30:08.727Z,56.75
2018-06-11T08:32:38.846Z,56.67
2018-06-11T08:35:08.469Z,56.89
2018-06-11T08:37:39.519Z,57.32
2018-06-11T08:40:09.079Z,57.81
2018-06-11T08:42:38.773Z,58.91
2018-06-11T08:45:08.464Z,58.88
2018-06-11T08:47:38.280Z,58.84
2018-06-11T08:50:08.666Z,59.08
2018-06-11T08:52:38.936Z,59.61
2018-06-11T08:57:43.368Z,58.83
2018-06-11T09:00:13.395Z,58.45
2018-06-11T09:02:42.945Z,58.99
2018-06-11T09:05:12.890Z,58.82
2018-06-11T09:07:42.463Z,58.57
2018-06-11T09:10:12.572Z,58.53
2018-06-11T09:12:42.583Z,58.76
2018-06-11T09:15:12.520Z,59.45
2018-06-11T09:17:42.441Z,60.41
2018-06-11T09:20:12.358Z,60.72
2018-06-11T09:22:42.063Z,61.23
2018-06-11T09:25:11.620Z,60.78
2018-06-11T09:27:41.925Z,62.52
2018-06-11T09:30:11.824Z,62.62
2018-06-11T09:32:42.236Z,62.61
2018-06-11T09:35:12.445Z,62.77
2018-06-11T09:37:42.502Z,63.20
2018-06-11T09:40:12.541Z,63.38
2018-06-11T09:42:42.865Z,63.95
2018-06-11T09:45:12.886Z,64.20
2018-06-11T09:47:42.591Z,63.76
2018-06-11T09:50:12.585Z,63.57
2018-06-11T09:52:42.594Z,63.79
2018-06-11T09:55:12.736Z,64.18
2018-06-11T10:00:37.453Z,65.64
2018-06-11T10:03:07.006Z,65.07
2018-06-11T10:05:37.086Z,65.11
2018-06-11T10:08:08.558Z,65.55
2018-06-11T10:10:38.441Z,65.77
2018-06-11T10:13:12.020Z,66.24
2018-06-11T10:15:41.890Z,66.54
2018-06-11T10:18:11.856Z,67.72
2018-06-11T10:20:41.984Z,67.70
2018-06-11T10:23:12.486Z,67.98
2018-06-11T10:25:42.212Z,67.56
2018-06-11T10:28:11.990Z,67.09
2018-06-11T10:30:42.041Z,66.68
2018-06-11T10:33:12.280Z,67.72
2018-06-11T10:35:42.383Z,67.25
2018-06-11T10:38:12.359Z,68.09
2018-06-11T10:40:44.650Z,68.16
2018-06-11T10:43:15.690Z,68.61
2018-06-11T10:45:45.889Z,68.21
2018-06-11T10:48:15.798Z,67.94
2018-06-11T10:50:46.350Z,67.82
2018-06-11T10:53:16.458Z,68.34
2018-06-11T10:55:45.998Z,67.95
2018-06-11T10:58:19.622Z,67.81
2018-06-11T11:00:49.586Z,67.26
2018-06-11T11:03:19.504Z,67.91
2018-06-11T11:05:49.446Z,67.99
2018-06-11T11:08:19.268Z,67.55
2018-06-11T11:10:48.881Z,66.83
2018-06-11T11:13:18.920Z,66.80
2018-06-11T11:15:49.010Z,66.70
2018-06-11T11:18:18.560Z,66.17
2018-06-11T11:20:48.483Z,65.57
2018-06-11T11:23:18.691Z,66.12
2018-06-11T11:28:23.794Z,64.88
2018-06-11T11:30:54.233Z,65.19
2018-06-11T11:33:24.946Z,64.22
2018-06-11T11:35:55.392Z,64.65
2018-06-11T11:38:25.621Z,64.74
2018-06-11T11:40:55.786Z,64.67
2018-06-11T11:43:25.694Z,63.92
2018-06-11T11:45:55.667Z,63.98
2018-06-11T11:48:26.036Z,63.76
2018-06-11T11:50:56.088Z,63.83
2018-06-11T11:53:28.278Z,63.96
2018-06-11T11:55:58.244Z,63.49
2018-06-11T11:58:27.757Z,63.62
2018-06-11T12:00:57.359Z,64.05
2018-06-11T12:03:27.475Z,64.12
2018-06-11T12:05:58.139Z,63.77
2018-06-11T12:08:28.121Z,63.67
2018-06-11T12:10:57.735Z,63.80
2018-06-11T12:13:27.235Z,63.75
2018-06-11T12:15:58.011Z,63.30
2018-06-11T12:18:27.427Z,62.76
2018-06-11T12:20:57.350Z,63.44
2018-06-11T12:23:26.983Z,63.47
2018-06-11T12:25:57.249Z,63.52
2018-06-11T12:28:26.971Z,63.20
2018-06-11T12:30:57.229Z,63.30
2018-06-11T12:33:27.449Z,63.84
2018-06-11T12:35:57.392Z,63.55
2018-06-11T12:38:27.438Z,62.62
2018-06-11T12:40:57.378Z,62.42
2018-06-11T12:43:27.717Z,63.34
2018-06-11T12:45:59.947Z,63.18
2018-06-11T12:48:29.475Z,63.37
2018-06-11T12:50:59.422Z,62.61
2018-06-11T12:53:29.262Z,63.02
2018-06-11T12:55:58.833Z,62.34
2018-06-11T12:58:28.496Z,62.23
2018-06-11T13:00:58.596Z,61.93
2018-06-11T13:03:28.651Z,61.84
2018-06-11T13:05:58.325Z,61.48
2018-06-11T13:08:28.644Z,61.41
2018-06-11T13:10:58.648Z,61.22
2018-06-11T13:13:30.539Z,61.36
2018-06-11T13:16:00.065Z,60.88
2018-06-11T13:18:30.553Z,60.85
2018-06-11T13:21:00.905Z,61.79
2018-06-11T13:23:30.630Z,61.87
2018-06-11T13:26:00.835Z,62.58
2018-06-11T13:28:31.021Z,61.66
2018-06-11T13:31:01.072Z,61.72
2018-06-11T13:33:31.050Z,61.91
2018-06-11T13:36:00.937Z,61.62
2018-06-11T13:38:32.070Z,61.80
2018-06-11T13:41:02.614Z,61.83
2018-06-11T13:43:32.739Z,61.95
2018-06-11T13:46:02.693Z,61.90
2018-06-11T13:48:32.666Z,62.11
2018-06-11T13:51:02.846Z,61.75
2018-06-11T13:53:33.075Z,62.14
2018-06-11T13:56:03.240Z,61.70
2018-06-11T13:58:33.054Z,62.02
2018-06-11T14:01:05.028Z,61.52
2018-06-11T14:03:35.478Z,61.41
2018-06-11T14:08:58.558Z,61.81
2018-06-11T14:11:28.497Z,62.08
2018-06-11T14:13:58.325Z,62.31
2018-06-11T14:16:28.296Z,62.18
2018-06-11T14:18:58.136Z,61.50
2018-06-11T14:21:27.442Z,61.94
2018-06-11T14:23:57.773Z,61.63
2018-06-11T14:26:27.619Z,61.79
2018-06-11T14:28:57.867Z,62.06
2018-06-11T14:31:27.484Z,62.29
2018-06-11T14:33:57.097Z,62.41
2018-06-11T14:36:26.661Z,62.40
2018-06-11T14:38:56.768Z,62.39
2018-06-11T14:41:26.558Z,62.01
2018-06-11T14:43:56.110Z,61.80
2018-06-11T14:46:25.955Z,61.77
2018-06-11T14:48:56.528Z,62.08
2018-06-11T14:51:26.425Z,61.95
2018-06-11T14:53:55.942Z,62.30
2018-06-11T14:56:27.529Z,62.61
2018-06-11T14:58:57.196Z,62.31
2018-06-11T15:01:27.126Z,63.16
2018-06-11T15:03:58.835Z,63.50
2018-06-11T15:06:28.317Z,63.96
2018-06-11T15:08:58.347Z,63.53
2018-06-11T15:11:28.860Z,63.97
2018-06-11T15:13:58.423Z,64.00
2018-06-11T15:16:28.325Z,63.46
2018-06-11T15:18:58.422Z,63.17
2018-06-11T15:21:28.948Z,62.87
2018-06-11T15:24:00.219Z,62.42
2018-06-11T15:26:30.407Z,63.08
2018-06-11T15:29:00.812Z,62.97
2018-06-11T15:31:30.776Z,62.97
2018-06-11T15:34:01.359Z,63.02
2018-06-11T15:36:32.402Z,63.52
2018-06-11T15:39:04.153Z,63.58
2018-06-11T15:41:34.249Z,64.97
2018-06-11T15:44:07.999Z,67.80
2018-06-11T15:46:38.249Z,67.94
2018-06-11T15:49:08.381Z,70.26
2018-06-11T15:51:37.649Z,69.97
2018-06-11T15:54:07.756Z,69.84
2018-06-11T15:56:37.903Z,70.10
2018-06-11T15:59:07.972Z,70.32
2018-06-11T16:01:37.980Z,70.96
2018-06-11T16:04:08.070Z,70.49
2018-06-11T16:06:37.718Z,70.24
2018-06-11T16:09:09.306Z,69.83
2018-06-11T16:11:38.970Z,69.02
2018-06-11T16:14:08.386Z,68.70
2018-06-11T16:16:39.804Z,68.68
2018-06-11T16:19:10.359Z,68.08
2018-06-11T16:21:39.944Z,67.49
2018-06-11T16:24:09.705Z,67.63
2018-06-11T16:26:39.223Z,67.78
2018-06-11T16:29:10.474Z,67.07
2018-06-11T16:31:40.277Z,66.85
2018-06-11T16:34:10.080Z,66.98
2018-06-11T16:36:40.112Z,67.44
2018-06-11T16:39:10.168Z,66.93
2018-06-11T16:41:39.725Z,67.01
2018-06-11T16:44:09.881Z,67.24
2018-06-11T16:46:40.008Z,67.54
2018-06-11T16:49:10.031Z,67.71
2018-06-11T16:51:41.428Z,67.74
2018-06-11T16:54:11.314Z,67.21
2018-06-11T16:56:41.684Z,67.71
2018-06-11T16:59:11.185Z,67.73
2018-06-11T17:01:41.439Z,67.60
2018-06-11T17:04:11.272Z,67.88
2018-06-11T17:06:41.871Z,67.99
2018-06-11T17:09:11.984Z,68.15
2018-06-11T17:11:42.643Z,68.43
2018-06-11T17:14:12.216Z,68.94
2018-06-11T17:16:42.467Z,69.14
2018-06-11T17:19:12.995Z,68.19
2018-06-11T17:21:42.630Z,68.44
2018-06-11T17:24:13.035Z,68.27
2018-06-11T17:26:42.710Z,68.39
2018-06-11T17:29:12.300Z,68.21
2018-06-11T17:31:42.498Z,67.62
2018-06-11T17:34:12.635Z,68.05
2018-06-11T17:36:42.363Z,67.43
2018-06-11T17:39:12.116Z,66.92
2018-06-11T17:41:41.704Z,66.41
2018-06-11T17:44:11.287Z,66.29
2018-06-11T17:46:41.328Z,65.88
2018-06-11T17:49:11.168Z,65.52
2018-06-11T17:51:40.555Z,65.55
2018-06-11T17:54:09.929Z,64.76
2018-06-11T17:56:39.879Z,64.08
2018-06-11T17:59:09.274Z,65.11
2018-06-11T18:01:38.668Z,64.81
2018-06-11T18:04:08.457Z,64.65
2018-06-11T18:06:38.160Z,64.29
2018-06-11T18:09:09.800Z,64.55
2018-06-11T18:11:39.466Z,64.59
2018-06-11T18:14:08.775Z,64.76
2018-06-11T18:16:38.904Z,64.69
2018-06-11T18:19:08.716Z,64.57
2018-06-11T18:21:38.042Z,65.34
2018-06-11T18:24:08.035Z,64.80
2018-06-11T18:26:37.953Z,65.56
2018-06-11T18:29:07.797Z,65.68
2018-06-11T18:31:38.068Z,65.59
2018-06-11T18:34:07.868Z,66.05
2018-06-11T18:36:37.802Z,65.52
2018-06-11T18:39:09.599Z,65.96
2018-06-11T18:41:39.968Z,65.54
2018-06-11T18:44:10.242Z,66.15
2018-06-11T18:46:40.073Z,66.28
2018-06-11T18:49:09.551Z,65.96
2018-06-11T18:51:39.557Z,66.15
2018-06-11T18:54:10.825Z,66.15
2018-06-11T18:56:40.695Z,66.68
2018-06-11T18:59:10.559Z,66.31
2018-06-11T19:01:40.819Z,66.90
2018-06-11T19:04:10.673Z,66.61
2018-06-11T19:06:41.228Z,66.91
2018-06-11T19:09:11.020Z,66.62
2018-06-11T19:11:40.855Z,67.25
2018-06-11T19:14:10.906Z,67.92
2018-06-11T19:16:40.888Z,67.95
2018-06-11T19:19:10.763Z,67.66
2018-06-11T19:21:40.418Z,68.19
2018-06-11T19:24:10.157Z,68.09
2018-06-11T19:26:40.404Z,68.39
2018-06-11T19:29:10.346Z,68.81
2018-06-11T19:31:41.313Z,68.17
2018-06-11T19:34:12.422Z,68.51
2018-06-11T19:36:43.319Z,68.18
2018-06-11T19:39:13.423Z,68.69
2018-06-11T19:41:43.865Z,68.76
2018-06-11T19:44:14.251Z,68.89
2018-06-11T19:46:43.953Z,68.23
2018-06-11T19:49:13.929Z,68.13
2018-06-11T19:51:44.039Z,67.94
2018-06-11T19:54:13.904Z,68.03
2018-06-11T19:56:44.165Z,68.26
2018-06-11T19:59:13.937Z,68.31
2018-06-11T20:01:43.874Z,68.53
2018-06-11T20:04:13.913Z,68.55
2018-06-11T20:06:44.006Z,68.93
2018-06-11T20:09:14.017Z,68.50
2018-06-11T20:11:43.617Z,68.55
2018-06-11T20:14:13.711Z,68.91
2018-06-11T20:16:43.261Z,68.37
2018-06-11T20:19:12.972Z,68.34
2018-06-11T20:21:43.111Z,68.97
2018-06-11T20:24:13.193Z,68.24
2018-06-11T20:26:43.595Z,68.61
2018-06-11T20:29:13.210Z,68.87
2018-06-11T20:31:42.840Z,68.94
2018-06-11T20:34:13.234Z,68.55
2018-06-11T20:36:42.850Z,68.73
2018-06-11T20:39:12.935Z,68.17
2018-06-11T20:41:42.565Z,68.80
2018-06-11T20:44:12.286Z,68.17
2018-06-11T20:46:42.046Z,68.08
2018-06-11T20:49:12.321Z,68.28
2018-06-11T20:51:42.878Z,68.04
2018-06-11T20:54:12.610Z,67.79
2018-06-11T20:56:42.161Z,67.97
2018-06-11T20:59:12.174Z,67.80
2018-06-11T21:01:42.095Z,68.42
2018-06-11T21:04:11.721Z,67.84
2018-06-11T21:06:41.670Z,68.04
2018-06-11T21:09:11.743Z,68.00
2018-06-11T21:11:41.248Z,68.45
2018-06-11T21:14:11.094Z,68.55
2018-06-11T21:16:41.024Z,68.48
2018-06-11T21:19:10.808Z,68.50
2018-06-11T21:21:40.688Z,69.11
2018-06-11T21:24:10.444Z,68.89
2018-06-11T21:26:41.301Z,68.42
2018-06-11T21:29:11.195Z,68.20
2018-06-11T21:31:41.077Z,68.75
2018-06-11T21:34:10.683Z,68.68
2018-06-11T21:36:40.739Z,68.90
2018-06-11T21:39:10.999Z,68.86
2018-06-11T21:41:40.764Z,69.04
2018-06-11T21:44:10.461Z,68.74
2018-06-11T21:46:40.727Z,68.53
2018-06-11T21:49:10.424Z,68.59
2018-06-11T21:51:41.309Z,68.85
2018-06-11T21:54:11.228Z,69.22
2018-06-11T21:56:41.112Z,69.64
2018-06-11T21:59:10.901Z,70.13
2018-06-11T22:01:41.937Z,69.85
2018-06-11T22:04:11.712Z,70.31
2018-06-11T22:06:41.664Z,70.73
2018-06-11T22:09:11.492Z,70.66
2018-06-11T22:11:40.868Z,71.58
2018-06-11T22:14:11.146Z,71.55
2018-06-11T22:16:40.894Z,71.16
2018-06-11T22:19:17.133Z,71.47
2018-06-11T22:21:46.775Z,71.34
2018-06-11T22:24:16.603Z,71.46
2018-06-11T22:26:46.640Z,71.31
2018-06-11T22:29:16.764Z,70.81
2018-06-11T22:31:46.644Z,70.58
2018-06-11T22:34:16.667Z,71.27
2018-06-11T22:36:46.437Z,71.13
2018-06-11T22:39:16.571Z,71.46
2018-06-11T22:41:46.130Z,70.93
2018-06-11T22:44:16.292Z,70.81
2018-06-11T22:46:46.228Z,71.18
2018-06-11T22:49:16.071Z,70.51
2018-06-11T22:51:46.252Z,70.68
2018-06-11T22:54:15.971Z,71.37
2018-06-11T22:56:45.884Z,71.46
2018-06-11T22:59:15.945Z,71.32
2018-06-11T23:01:46.331Z,71.38
2018-06-11T23:04:15.801Z,71.50
2018-06-11T23:06:45.792Z,71.59
2018-06-11T23:09:15.705Z,71.85
2018-06-11T23:11:45.321Z,72.29
2018-06-11T23:14:15.667Z,72.20
2018-06-11T23:16:45.211Z,72.22
2018-06-11T23:19:14.904Z,72.18
2018-06-11T23:21:44.528Z,72.50
2018-06-11T23:24:14.375Z,72.08
2018-06-11T23:26:44.389Z,72.63
2018-06-11T23:29:14.041Z,72.13
2018-06-11T23:31:44.164Z,72.60
2018-06-11T23:34:14.885Z,72.02
2018-06-11T23:36:44.721Z,72.11
2018-06-11T23:39:15.116Z,71.97
2018-06-11T23:41:44.723Z,72.53
2018-06-11T23:44:15.096Z,72.88
2018-06-11T23:46:45.006Z,73.24
2018-06-11T23:49:16.239Z,72.73
2018-06-11T23:51:46.151Z,73.33
2018-06-11T23:54:16.506Z,73.15
2018-06-11T23:56:46.696Z,72.93
2018-06-11T23:59:16.401Z,73.70
